Las Vegas, Nevada
Traffic Map
Current Weather Conditions
Las Vegas, Nevada
Broken Clouds
Broken Clouds
88°
Feels Like: 88°
Wind Chill: 88° Ceiling: 20000
Heat Index: 88° Visibility: 10mi
Dew Point: 54° Wind: 16mph
Humidity: 31% Direction: 220° (SW)
Pressure: 29.88in Gusts: 30mph
Raw Report DataKLAS 011256Z 22014G26KT 10SM FEW070 FEW110 BKN200 31/12 A2988 RMK AO2 PK WND 21037/1204 RAE34 SLP083 OCNL VCBLDU AND CB DSNT W-NW P0000 T03110122
Traffic Incident Summary
Active as of:
Severity:
Category:
InformationThere was an issue retrieving the traffic information for this location. Please try a different location or try again shortly.
Advertisements
Track Severe Weather on mobile